Upstream stations:
Downstream station:
SHEF ID: CDNT2 Canadian Rv nr Canadian, TX
STATION TYPE:
Regulating: Stage = 8.00, Flow = 5231
PRECIP STAGE RIV-FLOW BAT-LOAD
in ft cfs volt
Ccp-Rev Ccp-Rev Ccp-Rev Ccp-Rev
(US/Central)
03/15 00:00 ---- 2.47 204 12.33
03/15 01:00 ---- 2.47 204 12.33
03/15 02:00 ---- 2.52 210 12.33
03/15 03:00 ---- 2.49 207 12.25
03/15 04:00 ---- 2.50 208 12.25
03/15 05:00 ---- 2.48 206 12.25
03/15 06:00 ---- 2.49 207 12.17
03/15 07:00 ---- 2.47 204 12.17
03/15 08:00 ---- 2.44 201 12.17
03/15 09:00 ---- 2.38 194 12.25
03/15 10:00 ---- 2.34 189 12.25
03/15 11:00 ---- 2.35 190 12.41
03/15 12:00 ---- 2.34 189 12.49
03/15 13:00 ---- 2.31 185 12.65
03/15 14:00 ---- 2.29 183 12.73
03/15 15:00 ---- 2.26 179 12.81
03/15 16:00 ---- 2.24 177 12.81
03/15 17:00 ---- 2.22 175 12.73
03/15 18:00 ---- 2.18 170 12.57
03/15 19:00 ---- 2.21 173 12.49
03/15 20:00 ---- 2.16 168 12.49
03/15 21:00 ---- 2.18 170 12.41
03/15 22:00 ---- 2.22 175 12.41
03/15 23:00 ---- ---- ---- ----